createdAt,value
2023-04-01T00:02:05.759Z,0
2023-04-01T00:04:31.990Z,0
2023-04-01T00:06:57.957Z,0
2023-04-01T00:09:24.213Z,0
2023-04-01T00:11:50.166Z,0
2023-04-01T00:14:16.338Z,0
2023-04-01T00:16:42.389Z,0
2023-04-01T00:19:08.571Z,0
2023-04-01T00:21:34.509Z,0
2023-04-01T00:24:00.636Z,0
2023-04-01T00:26:26.704Z,0
2023-04-01T00:28:53.002Z,0
2023-04-01T00:31:18.100Z,0
2023-04-01T00:33:44.156Z,0
2023-04-01T00:36:10.283Z,0
2023-04-01T00:38:36.375Z,0
2023-04-01T00:41:02.316Z,0
2023-04-01T00:43:28.556Z,0
2023-04-01T00:45:54.612Z,0
2023-04-01T00:48:20.827Z,0
2023-04-01T00:50:46.722Z,0
2023-04-01T00:53:12.923Z,0
2023-04-01T00:55:38.918Z,0
2023-04-01T00:58:05.179Z,0
2023-04-01T01:00:31.199Z,0
2023-04-01T01:02:56.277Z,0
2023-04-01T01:05:22.377Z,0
2023-04-01T01:07:48.564Z,0
2023-04-01T01:10:14.563Z,0
2023-04-01T01:12:40.654Z,0
2023-04-01T01:15:06.869Z,0
2023-04-01T01:17:32.942Z,0
2023-04-01T01:19:59.029Z,0
2023-04-01T01:22:25.030Z,0
2023-04-01T01:24:51.055Z,0
2023-04-01T01:27:17.318Z,0
2023-04-01T01:29:43.445Z,0
2023-04-01T01:32:09.434Z,0
2023-04-01T01:34:34.598Z,0
2023-04-01T01:37:00.645Z,0
2023-04-01T01:39:26.754Z,0
2023-04-01T01:41:52.879Z,0
2023-04-01T01:44:18.966Z,0
2023-04-01T01:46:44.927Z,0
2023-04-01T01:49:11.100Z,0
2023-04-01T01:51:37.140Z,0
2023-04-01T01:54:03.208Z,0
2023-04-01T01:56:29.380Z,0
2023-04-01T01:58:55.536Z,0
2023-04-01T02:01:21.522Z,0
2023-04-01T02:03:47.665Z,0
2023-04-01T02:06:12.666Z,0
2023-04-01T02:08:38.852Z,0
2023-04-01T02:11:05.048Z,0
2023-04-01T02:13:31.124Z,0
2023-04-01T02:15:57.240Z,0
2023-04-01T02:18:23.149Z,0
2023-04-01T02:20:49.445Z,0
2023-04-01T02:23:15.559Z,0
2023-04-01T02:25:41.556Z,0
2023-04-01T02:28:07.701Z,0
2023-04-01T02:30:33.655Z,0
2023-04-01T02:32:59.731Z,0
2023-04-01T02:35:25.969Z,0
2023-04-01T02:37:51.166Z,0
2023-04-01T02:40:17.041Z,0
2023-04-01T02:42:43.339Z,0
2023-04-01T02:45:09.330Z,0
2023-04-01T02:47:35.402Z,0
2023-04-01T02:50:01.424Z,0
2023-04-01T02:52:27.642Z,0
2023-04-01T02:54:53.641Z,0
2023-04-01T02:57:19.828Z,0
2023-04-01T02:59:45.954Z,0
2023-04-01T03:02:12.085Z,0
2023-04-01T03:04:38.175Z,0
2023-04-01T03:07:04.078Z,0
2023-04-01T03:09:29.204Z,0
2023-04-01T03:11:55.374Z,0
2023-04-01T03:14:21.501Z,0
2023-04-01T03:16:47.557Z,0
2023-04-01T03:19:13.673Z,0
2023-04-01T03:21:39.828Z,0
2023-04-01T03:24:05.976Z,0
2023-04-01T03:26:31.981Z,0
2023-04-01T03:28:57.952Z,0
2023-04-01T03:31:24.237Z,0
2023-04-01T03:33:50.293Z,0
2023-04-01T03:36:16.401Z,0
2023-04-01T03:38:42.384Z,0
2023-04-01T03:41:07.614Z,0
2023-04-01T03:43:33.578Z,0
2023-04-01T03:45:59.708Z,0
2023-04-01T03:48:25.882Z,0
2023-04-01T03:50:51.939Z,0
2023-04-01T03:53:18.137Z,0
2023-04-01T03:55:44.014Z,0
2023-04-01T03:58:10.257Z,0
2023-04-01T04:00:36.398Z,0
2023-04-01T04:03:02.458Z,0
2023-04-01T04:05:28.513Z,0
2023-04-01T04:07:54.682Z,0
2023-04-01T04:10:20.774Z,0
2023-04-01T04:12:45.902Z,0
2023-04-01T04:15:11.908Z,0
2023-04-01T04:17:38.044Z,0
2023-04-01T04:20:04.133Z,0
2023-04-01T04:22:30.246Z,0
2023-04-01T04:24:56.306Z,0
2023-04-01T04:27:22.385Z,0
2023-04-01T04:29:48.392Z,0
2023-04-01T04:32:14.613Z,0
2023-04-01T04:34:40.688Z,0
2023-04-01T04:37:06.742Z,0
2023-04-01T04:39:32.792Z,0
2023-04-01T04:41:58.871Z,0
2023-04-01T04:44:24.121Z,0
2023-04-01T04:46:50.232Z,0
2023-04-01T04:49:16.324Z,0
2023-04-01T04:51:42.407Z,0
2023-04-01T04:54:08.395Z,0
2023-04-01T04:56:34.596Z,0
2023-04-01T04:59:00.701Z,0
2023-04-01T05:01:26.812Z,5
2023-04-01T05:03:52.765Z,5
2023-04-01T05:06:18.840Z,5
2023-04-01T05:08:44.912Z,11
2023-04-01T05:11:11.106Z,11
2023-04-01T05:13:37.143Z,11
2023-04-01T05:16:02.247Z,16
2023-04-01T05:18:28.491Z,22
2023-04-01T05:20:54.577Z,28
2023-04-01T05:23:20.570Z,28
2023-04-01T05:25:46.638Z,33
2023-04-01T05:28:12.686Z,39
2023-04-01T05:30:38.793Z,39
2023-04-01T05:33:04.974Z,45
2023-04-01T05:35:30.996Z,50
2023-04-01T05:37:57.091Z,56
2023-04-01T05:40:23.269Z,61
2023-04-01T05:42:49.286Z,67
2023-04-01T05:45:15.371Z,67
2023-04-01T05:47:40.488Z,67
2023-04-01T05:50:06.579Z,73
2023-04-01T05:52:32.671Z,73
2023-04-01T05:54:58.942Z,73
2023-04-01T05:57:24.992Z,90
2023-04-01T05:59:51.084Z,95
2023-04-01T06:02:17.064Z,95
2023-04-01T06:04:43.210Z,95
2023-04-01T06:07:09.282Z,101
2023-04-01T06:09:35.425Z,95
2023-04-01T06:12:01.567Z,95
2023-04-01T06:14:27.533Z,106
2023-04-01T06:16:53.701Z,118
2023-04-01T06:19:18.774Z,129
2023-04-01T06:21:44.852Z,135
2023-04-01T06:24:11.015Z,146
2023-04-01T06:26:37.059Z,157
2023-04-01T06:29:03.117Z,163
2023-04-01T06:31:29.357Z,174
2023-04-01T06:33:55.437Z,174
2023-04-01T06:36:21.585Z,185
2023-04-01T06:38:47.639Z,196
2023-04-01T06:41:13.669Z,208
2023-04-01T06:43:39.842Z,208
2023-04-01T06:46:05.911Z,196
2023-04-01T06:48:32.089Z,191
2023-04-01T06:50:57.109Z,185
2023-04-01T06:53:23.247Z,146
2023-04-01T06:55:49.391Z,151
2023-04-01T06:58:15.483Z,135
2023-04-01T07:00:41.555Z,129
2023-04-01T07:03:07.704Z,118
2023-04-01T07:05:33.670Z,112
2023-04-01T07:07:59.723Z,112
2023-04-01T07:10:25.825Z,112
2023-04-01T07:12:52.022Z,112
2023-04-01T07:15:18.085Z,112
2023-04-01T07:17:44.217Z,112
2023-04-01T07:20:10.218Z,123
2023-04-01T07:22:35.447Z,140
2023-04-01T07:25:01.495Z,163
2023-04-01T07:27:27.629Z,185
2023-04-01T07:29:53.699Z,180
2023-04-01T07:32:19.708Z,202
2023-04-01T07:34:45.816Z,219
2023-04-01T07:37:11.091Z,208
2023-04-01T07:39:37.133Z,202
2023-04-01T07:42:03.225Z,196
2023-04-01T07:44:29.293Z,191
2023-04-01T07:46:55.426Z,191
2023-04-01T07:49:21.476Z,168
2023-04-01T07:51:47.562Z,151
2023-04-01T07:54:13.692Z,146
2023-04-01T07:56:39.763Z,146
2023-04-01T07:59:05.915Z,157
2023-04-01T08:01:31.961Z,146
2023-04-01T08:03:58.118Z,180
2023-04-01T08:06:23.989Z,180
2023-04-01T08:08:49.130Z,174
2023-04-01T08:11:15.379Z,174
2023-04-01T08:13:41.409Z,174
2023-04-01T08:16:07.513Z,163
2023-04-01T08:18:33.600Z,168
2023-04-01T08:20:59.783Z,174
2023-04-01T08:23:25.863Z,185
2023-04-01T08:25:51.795Z,185
2023-04-01T08:28:17.991Z,185
2023-04-01T08:30:44.360Z,174
2023-04-01T08:33:10.209Z,185
2023-04-01T08:35:36.233Z,196
2023-04-01T08:38:02.266Z,208
2023-04-01T08:40:27.497Z,213
2023-04-01T08:42:53.617Z,191
2023-04-01T08:45:19.693Z,196
2023-04-01T08:47:45.819Z,202
2023-04-01T08:50:11.876Z,196
2023-04-01T08:52:38.042Z,168
2023-04-01T08:55:04.034Z,185
2023-04-01T08:57:30.207Z,174
2023-04-01T08:59:56.299Z,191
2023-04-01T09:02:22.215Z,168
2023-04-01T09:04:48.317Z,185
2023-04-01T09:07:14.540Z,202
2023-04-01T09:09:40.594Z,208
2023-04-01T09:14:32.862Z,253
2023-04-01T09:16:58.931Z,241
2023-04-01T09:19:24.058Z,196
2023-04-01T09:21:50.165Z,196
2023-04-01T09:24:16.350Z,202
2023-04-01T09:26:42.428Z,202
2023-04-01T09:29:08.368Z,208
2023-04-01T09:31:34.585Z,202
2023-04-01T09:34:00.609Z,219
2023-04-01T09:36:26.722Z,247
2023-04-01T09:38:52.849Z,265
2023-04-01T09:41:18.934Z,253
2023-04-01T09:43:44.984Z,247
2023-04-01T09:46:11.111Z,230
2023-04-01T09:48:37.182Z,219
2023-04-01T09:51:02.181Z,236
2023-04-01T09:53:28.424Z,259
2023-04-01T09:55:54.544Z,247
2023-04-01T09:58:20.658Z,287
2023-04-01T10:00:46.715Z,310
2023-04-01T10:03:12.692Z,287
2023-04-01T10:05:38.882Z,293
2023-04-01T10:08:05.012Z,241
2023-04-01T10:10:31.074Z,271
2023-04-01T10:12:57.173Z,259
2023-04-01T10:15:23.092Z,282
2023-04-01T10:17:49.365Z,316
2023-04-01T10:20:15.289Z,327
2023-04-01T10:25:06.682Z,332
2023-04-01T10:27:32.778Z,349
2023-04-01T10:29:58.700Z,299
2023-04-01T10:32:24.997Z,332
2023-04-01T10:34:51.001Z,316
2023-04-01T10:37:17.146Z,310
2023-04-01T10:39:43.191Z,338
2023-04-01T10:42:09.219Z,332
2023-04-01T10:44:35.258Z,299
2023-04-01T10:47:01.502Z,253
2023-04-01T10:49:27.431Z,332
2023-04-01T10:51:53.529Z,265
2023-04-01T10:54:19.778Z,219
2023-04-01T10:56:45.853Z,208
2023-04-01T10:59:10.835Z,236
2023-04-01T11:01:36.937Z,236
2023-04-01T11:04:03.218Z,219
2023-04-01T11:06:29.120Z,236
2023-04-01T11:08:55.216Z,219
2023-04-01T11:11:21.524Z,213
2023-04-01T11:13:47.578Z,241
2023-04-01T11:16:13.712Z,287
2023-04-01T11:18:39.604Z,299
2023-04-01T11:21:05.779Z,259
2023-04-01T11:23:31.792Z,271
2023-04-01T11:25:57.964Z,310
2023-04-01T11:28:24.023Z,287
2023-04-01T11:30:49.326Z,310
2023-04-01T11:33:15.236Z,316
2023-04-01T11:35:41.448Z,293
2023-04-01T11:38:07.555Z,338
2023-04-01T11:40:33.539Z,287
2023-04-01T11:42:59.627Z,366
2023-04-01T11:45:25.654Z,366
2023-04-01T11:47:51.765Z,366
2023-04-01T11:50:17.854Z,344
2023-04-01T11:52:43.951Z,344
2023-04-01T11:55:10.048Z,349
2023-04-01T11:57:36.141Z,361
2023-04-01T12:00:02.295Z,377
2023-04-01T12:02:28.337Z,372
2023-04-01T12:04:54.421Z,372
2023-04-01T12:07:20.558Z,366
2023-04-01T12:09:46.658Z,338
2023-04-01T12:12:12.706Z,293
2023-04-01T12:14:38.801Z,293
2023-04-01T12:17:04.907Z,377
2023-04-01T12:19:30.981Z,366
2023-04-01T12:21:57.092Z,316
2023-04-01T12:24:22.202Z,287
2023-04-01T12:26:48.292Z,287
2023-04-01T12:29:14.400Z,327
2023-04-01T12:31:40.490Z,321
2023-04-01T12:34:06.597Z,299
2023-04-01T12:36:32.681Z,316
2023-04-01T12:38:58.767Z,361
2023-04-01T12:41:24.920Z,372
2023-04-01T12:43:50.958Z,344
2023-04-01T12:46:17.047Z,355
2023-04-01T12:48:43.151Z,332
2023-04-01T12:51:09.247Z,299
2023-04-01T12:53:35.380Z,338
2023-04-01T12:56:01.565Z,304
2023-04-01T12:58:27.654Z,247
2023-04-01T13:00:53.760Z,304
2023-04-01T13:03:19.856Z,271
2023-04-01T13:05:45.999Z,230
2023-04-01T13:08:12.042Z,230
2023-04-01T13:10:38.123Z,276
2023-04-01T13:13:04.228Z,241
2023-04-01T13:15:30.329Z,208
2023-04-01T13:17:56.426Z,208
2023-04-01T13:20:22.619Z,213
2023-04-01T13:22:48.608Z,213
2023-04-01T13:25:14.706Z,219
2023-04-01T13:27:40.788Z,253
2023-04-01T13:30:06.901Z,213
2023-04-01T13:32:32.975Z,213
2023-04-01T13:34:59.101Z,174
2023-04-01T13:37:25.189Z,168
2023-04-01T13:39:50.315Z,185
2023-04-01T13:42:16.394Z,163
2023-04-01T13:44:42.470Z,151
2023-04-01T13:47:08.577Z,174
2023-04-01T13:49:34.684Z,247
2023-04-01T13:52:00.761Z,213
2023-04-01T13:54:26.928Z,185
2023-04-01T13:56:52.952Z,180
2023-04-01T13:59:19.049Z,174
2023-04-01T14:01:45.128Z,196
2023-04-01T14:04:11.268Z,191
2023-04-01T14:06:37.346Z,151
2023-04-01T14:09:03.434Z,163
2023-04-01T14:11:29.589Z,151
2023-04-01T14:13:55.671Z,146
2023-04-01T14:16:21.706Z,146
2023-04-01T14:18:47.815Z,151
2023-04-01T14:21:13.944Z,157
2023-04-01T14:23:39.028Z,151
2023-04-01T14:28:31.209Z,112
2023-04-01T14:30:57.292Z,106
2023-04-01T14:33:23.463Z,101
2023-04-01T14:35:49.550Z,101
2023-04-01T14:38:15.586Z,106
2023-04-01T14:40:41.679Z,135
2023-04-01T14:43:07.786Z,90
2023-04-01T14:45:33.890Z,95
2023-04-01T14:47:59.957Z,95
2023-04-01T14:50:26.066Z,112
2023-04-01T14:52:52.164Z,112
2023-04-01T14:55:17.265Z,106
2023-04-01T14:57:43.411Z,129
2023-04-01T15:00:09.462Z,135
2023-04-01T15:02:35.559Z,140
2023-04-01T15:05:01.679Z,101
2023-04-01T15:07:27.805Z,95
2023-04-01T15:09:53.896Z,84
2023-04-01T15:12:20.022Z,101
2023-04-01T15:14:46.089Z,95
2023-04-01T15:17:12.118Z,101
2023-04-01T15:19:38.258Z,135
2023-04-01T15:22:23.056Z,106
2023-04-01T15:24:30.459Z,106
2023-04-01T15:26:55.567Z,106
2023-04-01T15:29:21.615Z,90
2023-04-01T15:31:47.718Z,84
2023-04-01T15:34:13.901Z,73
2023-04-01T15:36:39.911Z,84
2023-04-01T15:39:06.068Z,73
2023-04-01T15:41:32.102Z,73
2023-04-01T15:43:58.254Z,84
2023-04-01T15:46:23.485Z,84
2023-04-01T15:48:49.566Z,73
2023-04-01T15:51:15.690Z,78
2023-04-01T15:53:41.761Z,84
2023-04-01T15:56:07.704Z,73
2023-04-01T15:58:33.937Z,56
2023-04-01T16:01:00.057Z,50
2023-04-01T16:05:52.204Z,61
2023-04-01T16:08:18.367Z,61
2023-04-01T16:10:44.410Z,73
2023-04-01T16:13:10.463Z,56
2023-04-01T16:15:36.616Z,56
2023-04-01T16:18:02.743Z,50
2023-04-01T16:20:28.801Z,45
2023-04-01T16:22:54.942Z,39
2023-04-01T16:25:19.833Z,39
2023-04-01T16:27:46.119Z,33
2023-04-01T16:30:12.062Z,33
2023-04-01T16:32:38.293Z,33
2023-04-01T16:35:04.424Z,39
2023-04-01T16:37:30.473Z,28
2023-04-01T16:39:56.546Z,33
2023-04-01T16:42:22.608Z,33
2023-04-01T16:44:48.770Z,39
2023-04-01T16:47:14.806Z,45
2023-04-01T16:49:41.023Z,39
2023-04-01T16:52:07.101Z,33
2023-04-01T16:54:33.184Z,28
2023-04-01T16:56:58.085Z,33
2023-04-01T16:59:24.286Z,33
2023-04-01T17:01:50.443Z,28
2023-04-01T17:04:16.554Z,28
2023-04-01T17:06:42.481Z,28
2023-04-01T17:09:08.769Z,22
2023-04-01T17:11:34.832Z,28
2023-04-01T17:14:00.996Z,28
2023-04-01T17:16:27.091Z,33
2023-04-01T17:18:53.085Z,28
2023-04-01T17:21:19.085Z,33
2023-04-01T17:23:45.219Z,33
2023-04-01T17:26:11.412Z,28
2023-04-01T17:28:36.345Z,28
2023-04-01T17:31:02.606Z,22
2023-04-01T17:33:28.534Z,16
2023-04-01T17:35:54.700Z,16
2023-04-01T17:38:20.921Z,11
2023-04-01T17:40:46.952Z,5
2023-04-01T17:43:13.123Z,0
2023-04-01T17:45:39.013Z,0
2023-04-01T17:48:05.269Z,0
2023-04-01T17:50:31.200Z,0
2023-04-01T17:52:57.466Z,0
2023-04-01T17:55:23.636Z,0
2023-04-01T17:57:49.641Z,0
2023-04-01T18:00:14.596Z,0
2023-04-01T18:02:40.866Z,0
2023-04-01T18:05:06.972Z,0
2023-04-01T18:07:33.053Z,0
2023-04-01T18:09:58.985Z,0
2023-04-01T18:12:25.265Z,0
2023-04-01T18:14:51.303Z,0
2023-04-01T18:17:17.444Z,0
2023-04-01T18:19:43.367Z,0
2023-04-01T18:22:09.674Z,0
2023-04-01T18:24:35.558Z,0
2023-04-01T18:27:01.844Z,0
2023-04-01T18:29:27.921Z,0
2023-04-01T18:31:52.932Z,0
2023-04-01T18:34:19.137Z,0
2023-04-01T18:36:45.242Z,0
2023-04-01T18:39:11.333Z,0
2023-04-01T18:41:37.465Z,0
2023-04-01T18:44:03.479Z,0
2023-04-01T18:46:29.561Z,0
2023-04-01T18:48:55.736Z,0
2023-04-01T18:51:21.650Z,0
2023-04-01T18:53:47.882Z,0
2023-04-01T18:56:13.909Z,0
2023-04-01T18:58:40.134Z,0
2023-04-01T19:01:06.205Z,0
2023-04-01T19:03:31.343Z,0
2023-04-01T19:05:57.370Z,0
2023-04-01T19:08:23.300Z,0
2023-04-01T19:13:15.672Z,0
2023-04-01T19:15:41.652Z,0
2023-04-01T19:18:07.864Z,0
2023-04-01T19:20:33.781Z,0
2023-04-01T19:23:00.034Z,0
2023-04-01T19:25:26.114Z,0
2023-04-01T19:27:52.224Z,0
2023-04-01T19:30:18.250Z,0
2023-04-01T19:32:44.487Z,0
2023-04-01T19:35:09.588Z,0
2023-04-01T19:37:35.672Z,0
2023-04-01T19:40:01.716Z,0
2023-04-01T19:42:27.846Z,0
2023-04-01T19:44:53.945Z,0
2023-04-01T19:47:19.997Z,0
2023-04-01T19:49:46.126Z,0
2023-04-01T19:52:12.209Z,0
2023-04-01T19:54:38.273Z,0
2023-04-01T19:57:04.292Z,0
2023-04-01T19:59:30.458Z,0
2023-04-01T20:01:56.622Z,0
2023-04-01T20:04:22.696Z,0
2023-04-01T20:06:47.641Z,0
2023-04-01T20:09:13.906Z,0
2023-04-01T20:11:39.824Z,0
2023-04-01T20:14:06.114Z,0
2023-04-01T20:16:32.182Z,0
2023-04-01T20:18:58.122Z,0
2023-04-01T20:21:24.347Z,0
2023-04-01T20:23:50.459Z,0
2023-04-01T20:26:16.394Z,0
2023-04-01T20:28:42.498Z,0
2023-04-01T20:31:08.591Z,0
2023-04-01T20:33:34.850Z,0
2023-04-01T20:36:00.947Z,0
2023-04-01T20:38:25.977Z,0
2023-04-01T20:40:52.157Z,0
2023-04-01T20:43:18.093Z,0
2023-04-01T20:45:44.349Z,0
2023-04-01T20:48:10.291Z,0
2023-04-01T20:50:36.497Z,0
2023-04-01T20:53:02.661Z,0
2023-04-01T20:55:28.731Z,0
2023-04-01T20:57:54.765Z,0
2023-04-01T21:00:20.771Z,0
2023-04-01T21:02:46.917Z,0
2023-04-01T21:05:13.066Z,0
2023-04-01T21:07:39.237Z,0
2023-04-01T21:10:04.153Z,0
2023-04-01T21:12:30.380Z,0
2023-04-01T21:14:56.528Z,0
2023-04-01T21:17:22.560Z,0
2023-04-01T21:19:48.645Z,0
2023-04-01T21:22:14.780Z,0
2023-04-01T21:24:40.739Z,0
2023-04-01T21:27:06.952Z,0
2023-04-01T21:29:32.928Z,0
2023-04-01T21:31:59.074Z,0
2023-04-01T21:34:25.291Z,0
2023-04-01T21:36:51.388Z,0
2023-04-01T21:39:17.397Z,0
2023-04-01T21:41:42.461Z,0
2023-04-01T21:44:08.518Z,0
2023-04-01T21:46:34.677Z,0
2023-04-01T21:49:00.792Z,0
2023-04-01T21:51:26.970Z,0
2023-04-01T21:53:53.103Z,0
2023-04-01T21:56:19.076Z,0
2023-04-01T21:58:45.280Z,0
2023-04-01T22:01:11.266Z,0
2023-04-01T22:03:37.394Z,0
2023-04-01T22:06:03.528Z,0
2023-04-01T22:08:29.627Z,0
2023-04-01T22:10:55.618Z,0
2023-04-01T22:13:20.859Z,0
2023-04-01T22:15:46.966Z,0
2023-04-01T22:18:12.945Z,0
2023-04-01T22:20:39.139Z,0
2023-04-01T22:23:05.249Z,0
2023-04-01T22:25:31.183Z,0
2023-04-01T22:27:57.453Z,0
2023-04-01T22:30:23.427Z,0
2023-04-01T22:32:49.421Z,0
2023-04-01T22:35:15.600Z,0
2023-04-01T22:37:41.684Z,0
2023-04-01T22:40:07.845Z,0
2023-04-01T22:42:34.019Z,0
2023-04-01T22:44:59.066Z,0
2023-04-01T22:47:25.030Z,0
2023-04-01T22:49:51.113Z,0
2023-04-01T22:52:17.324Z,0
2023-04-01T22:54:43.377Z,0
2023-04-01T22:57:09.534Z,0
2023-04-01T22:59:35.607Z,0
2023-04-01T23:02:01.741Z,0
2023-04-01T23:04:27.804Z,0
2023-04-01T23:06:53.974Z,0
2023-04-01T23:09:20.048Z,0
2023-04-01T23:11:46.054Z,0
2023-04-01T23:14:12.145Z,0
2023-04-01T23:16:37.253Z,0
2023-04-01T23:19:03.498Z,0
2023-04-01T23:21:29.372Z,0
2023-04-01T23:23:55.684Z,0
2023-04-01T23:26:21.576Z,0
2023-04-01T23:28:47.792Z,0
2023-04-01T23:31:13.838Z,0
2023-04-01T23:33:39.873Z,0
2023-04-01T23:36:05.967Z,0
2023-04-01T23:38:32.076Z,0
2023-04-01T23:40:58.290Z,0
2023-04-01T23:43:24.409Z,0
2023-04-01T23:45:50.331Z,0
2023-04-01T23:48:15.455Z,0
2023-04-01T23:50:41.544Z,0
2023-04-01T23:53:07.742Z,0
2023-04-01T23:55:32.751Z,0
2023-04-01T23:57:58.895Z,0
